• Join FlightAware (Why Join?)
  • Login
  • US Flag 
09:46PM EST


 

Airport Tracker/Info


-or-


 

Live Flight TrackerFlight Track Log ✈ B-18725 ✈ 27-Apr-2013 ✈ RCTP / TPE - WIII / CGK

Flight Track Log - Related Links

Times and Time Zones

All times are in EDT time to prevent confusion due to time zone crossing. See the B-18725 flight status page for this flight to view local times or setup timezone preferences in your user account.

Time Position Orientation Groundspeed Altitude Reporting Facility
EDT Latitude Longitude Course Direction KTS MPH feet Rate Location/Type
07:15AM 25.0920 121.2400 49° Northeast 175 201 400  Level FlightAware
07:15AM 25.1050 121.2580 51° Northeast 180 207 1,100 1,380 Climbing FlightAware
07:16AM 25.1230 121.2800 48° Northeast 202 232 1,700 960 Climbing FlightAware
07:16AM 25.1390 121.3010 50° Northeast 230 265 2,000 720 Climbing FlightAware
07:17AM 25.1500 121.3150 49° Northeast 246 283 2,200 1,020 Climbing FlightAware
07:17AM 25.1740 121.3470 50° Northeast 275 316 2,800 1,740 Climbing FlightAware
07:17AM 25.1940 121.3720 49° Northeast 281 323 3,800 2,220 Climbing FlightAware
07:18AM 25.2080 121.3900 49° Northeast 287 330 4,300 2,100 Climbing FlightAware
07:18AM 25.2350 121.4250 50° Northeast 301 346 5,400 2,220 Climbing FlightAware
07:18AM 25.2440 121.4370 50° Northeast 303 349 5,800 2,400 Climbing FlightAware
07:19AM 25.2710 121.4720 50° Northeast 307 353 7,000 2,400 Climbing FlightAware
07:19AM 25.2830 121.4900 54° Northeast 309 356 7,600 2,400 Climbing FlightAware
07:19AM 25.2900 121.5150 73° East 312 359 8,200 2,100 Climbing FlightAware
07:20AM 25.2840 121.5510 100° East 312 359 9,000 2,100 Climbing FlightAware
07:20AM 25.2680 121.5710 131° Southeast 310 357 9,600 2,160 Climbing FlightAware
07:20AM 25.2510 121.5820 150° Southeast 311 358 10,100 1,380 Climbing FlightAware
07:21AM 25.1960 121.6090 156° South 343 395 10,900 1,080 Climbing FlightAware
07:22AM 25.1240 121.6440 156° South 388 447 11,700 1,200 Climbing FlightAware
07:22AM 25.0570 121.6780 155° Southeast 417 480 12,600 1,680 Climbing FlightAware
07:23AM 24.9880 121.7130 155° Southeast 428 493 14,000 1,260 Climbing FlightAware
07:24AM 24.9140 121.7510 155° Southeast 431 496 14,400 240 Climbing FlightAware
07:24AM 24.8520 121.7820 156° South 431 496 14,400  Level FlightAware
07:25AM 24.7910 121.8140 155° Southeast 431 496 14,400 2,400 Level FlightAware
07:28AM 24.5367 121.6685 208° Southwest  Level Estimated
07:29AM 24.4299 121.6076 207° Southwest  Level Estimated
07:30AM 24.3231 121.5468 207° Southwest  Level Estimated
07:31AM 24.2163 121.4861 207° Southwest  Level Estimated
07:32AM 24.1095 121.4255 207° Southwest  Level Estimated
07:32AM 23.8720 121.8420 207° Southwest 434 499 33,700  Level FlightAware
07:33AM 23.7520 121.7960 199° South 431 496 34,000 180 Climbing FlightAware
07:34AM 23.6900 121.7720 200° South 431 496 34,000  Level FlightAware
07:35AM 23.5960 121.7360 199° South 430 495 34,000  Level FlightAware
07:35AM 23.5380 121.7140 199° South 430 495 34,000  Level FlightAware
07:36AM 23.4500 121.6800 200° South 431 496 34,000  Level FlightAware
07:37AM 23.3670 121.6480 199° South 433 498 34,000  Level FlightAware
07:38AM 23.2580 121.6060 199° South 436 502 34,000  Level FlightAware
07:38AM 23.1750 121.5750 199° South 438 504 34,000  Level FlightAware
07:39AM 23.0920 121.5430 200° South 439 505 34,000  Level FlightAware
07:40AM 23.0150 121.5140 199° South 441 507 34,000  Level FlightAware
07:41AM 22.9420 121.4860 199° South 442 509 34,000  Level FlightAware
07:41AM 22.8700 121.4590 199° South 442 509 34,000  Level FlightAware
07:42AM 22.7730 121.4220 199° South 442 509 34,000  Level FlightAware
07:43AM 22.6910 121.3910 199° South 442 509 34,000  Level FlightAware
07:43AM 22.6140 121.3620 199° South 443 510 34,000  Level FlightAware
07:44AM 22.5320 121.3310 199° South 445 512 34,000  Level FlightAware
07:45AM 22.4620 121.3040 200° South 447 514 34,000  Level FlightAware
07:46AM 22.3370 121.2570 199° South 450 518 34,000  Level FlightAware
07:46AM 22.2560 121.2270 199° South 452 520 34,000  Level FlightAware
07:47AM 22.1710 121.1950 199° South 452 520 34,000  Level FlightAware
07:48AM 22.0900 121.1640 200° South 453 521 34,000  Level FlightAware
07:48AM 22.0050 121.1320 199° South 455 524 34,000  Level FlightAware
07:49AM 21.8970 121.0920 199° South 455 524 34,000  Level FlightAware
07:50AM 21.8160 121.0620 199° South 455 524 34,000  Level FlightAware
07:51AM 21.7360 121.0310 200° South 458 527 34,000  Level FlightAware
07:52AM 21.6390 120.9950 199° South 461 531 34,000  Level FlightAware
07:52AM 21.5570 120.9650 199° South 462 532 34,000  Level FlightAware
07:53AM 21.4620 120.9300 199° South 460 529 34,000  Level FlightAware
07:54AM 21.3890 120.9030 199° South 457 526 34,000  Level FlightAware
07:54AM 21.2970 120.8680 200° South 455 524 34,000  Level FlightAware
07:55AM 21.1880 120.8280 199° South 452 520 34,000  Level FlightAware
07:56AM 21.1080 120.7980 199° South 451 519 34,000  Level FlightAware
07:57AM 21.0310 120.7700 199° South 450 518 34,000  Level FlightAware
07:57AM 20.9530 120.7540 191° South 459 528 34,000  Level FlightAware
07:58AM 20.8390 120.7450 184° South 461 531 34,000  Level FlightAware
07:59AM 20.7690 120.7390 185° South 461 531 34,000  Level FlightAware
07:59AM 20.6680 120.7310 184° South 461 531 34,000  Level FlightAware
08:00AM 20.5820 120.7250 184° South 461 531 34,000  Level FlightAware
08:01AM 20.5090 120.7180 185° South 461 531 34,000  Level FlightAware
08:02AM 20.4020 120.7090 185° South 462 532 34,000  Level FlightAware
08:02AM 20.3130 120.7020 184° South 462 532 34,000  Level FlightAware
08:03AM 20.2230 120.6950 184° South 462 532 34,000  Level FlightAware
08:04AM 20.1370 120.6880 184° South 463 533 34,000  Level FlightAware
08:04AM 20.0640 120.6830 184° South 463 533 34,000  Level FlightAware
08:07AM 19.8400 120.5499 209° Southwest  Level Estimated
08:07AM 19.7630 120.6430 209° Southwest 458 527 34,000  Level FlightAware
08:07AM 19.6600 120.6150 194° South 458 527 34,000  Level FlightAware
08:08AM 19.5810 120.5910 196° South 458 527 34,000  Level FlightAware
08:09AM 19.4550 120.5470 198° South 458 527 34,000  Level FlightAware
08:10AM 19.3550 120.5160 196° South 460 529 34,000  Level FlightAware
08:11AM 19.2630 120.4990 190° South 462 532 34,000  Level FlightAware
08:11AM 19.1910 120.4870 189° South 462 532 34,000  Level FlightAware
08:12AM 19.1010 120.4720 189° South 462 532 34,000  Level FlightAware
08:13AM 19.0290 120.4600 189° South 462 532 34,000  Level FlightAware
08:13AM 18.9570 120.4480 189° South 462 532 34,000  Level FlightAware
08:14AM 18.8860 120.4360 189° South 462 532 34,000  Level FlightAware
08:15AM 18.8140 120.4240 189° South 462 532 34,000  Level FlightAware
08:16AM 18.7240 120.4090 189° South 462 532 34,000  Level FlightAware
08:16AM 18.6520 120.3970 189° South 462 532 34,000  Level FlightAware
08:17AM 18.5810 120.3850 189° South 462 532 34,000  Level FlightAware
08:18AM 18.5090 120.3730 189° South 462 532 34,000  Level FlightAware
08:18AM 18.4370 120.3610 189° South 462 532 34,000  Level FlightAware
08:19AM 18.3470 120.3460 189° South 462 532 34,000  Level FlightAware
08:20AM 18.2760 120.3340 189° South 462 532 34,000  Level FlightAware
08:22AM 18.0975 120.2248 210° Southwest  Level Estimated
08:23AM 17.9935 120.1613 210° Southwest  Level Estimated
08:24AM 17.8894 120.0978 210° Southwest  Level Estimated
08:25AM 17.7854 120.0345 210° Southwest  Level Estimated
08:26AM 17.6813 119.9712 210° Southwest  Level Estimated
08:27AM 17.5772 119.9080 210° Southwest  Level Estimated
08:28AM 17.4731 119.8448 210° Southwest  Level Estimated
08:29AM 17.3689 119.7818 210° Southwest  Level Estimated
08:30AM 17.2648 119.7188 210° Southwest  Level Estimated
08:31AM 17.1606 119.6559 210° Southwest  Level Estimated
08:32AM 17.0564 119.5930 210° Southwest  Level Estimated
08:33AM 16.9522 119.5302 210° Southwest  Level Estimated
08:34AM 16.8479 119.4675 210° Southwest  Level Estimated
08:35AM 16.7437 119.4048 210° Southwest  Level Estimated
08:36AM 16.6394 119.3422 210° Southwest  Level Estimated
08:37AM 16.5351 119.2797 210° Southwest  Level Estimated
08:38AM 16.4308 119.2173 210° Southwest  Level Estimated
08:39AM 16.3264 119.1549 210° Southwest  Level Estimated
08:40AM 16.2221 119.0926 210° Southwest  Level Estimated
08:41AM 16.1177 119.0304 210° Southwest  Level Estimated
08:42AM 16.0133 118.9682 210° Southwest  Level Estimated
08:43AM 15.9089 118.9061 210° Southwest  Level Estimated
08:44AM 15.8045 118.8440 210° Southwest  Level Estimated
08:45AM 15.7001 118.7820 210° Southwest  Level Estimated
08:46AM 15.5956 118.7201 210° Southwest  Level Estimated
08:47AM 15.4911 118.6583 210° Southwest  Level Estimated
08:48AM 15.3867 118.5965 210° Southwest  Level Estimated
08:49AM 15.2821 118.5347 210° Southwest  Level Estimated
08:50AM 15.1776 118.4731 210° Southwest  Level Estimated
08:51AM 15.0731 118.4115 210° Southwest  Level Estimated
08:52AM 14.9685 118.3499 210° Southwest  Level Estimated
08:53AM 14.8639 118.2884 210° Southwest  Level Estimated
08:54AM 14.7593 118.2270 210° Southwest  Level Estimated
08:55AM 14.6547 118.1656 210° Southwest  Level Estimated
08:56AM 14.5501 118.1043 210° Southwest  Level Estimated
08:57AM 14.4455 118.0430 210° Southwest  Level Estimated
08:58AM 14.3408 117.9818 210° Southwest  Level Estimated
08:59AM 14.2361 117.9207 210° Southwest  Level Estimated
09:00AM 14.1314 117.8596 210° Southwest  Level Estimated
09:01AM 14.0267 117.7986 209° Southwest  Level Estimated
09:02AM 13.9220 117.7376 209° Southwest  Level Estimated
09:03AM 13.8173 117.6767 209° Southwest  Level Estimated
09:04AM 13.7126 117.6158 209° Southwest  Level Estimated
09:05AM 13.6078 117.5550 209° Southwest  Level Estimated
09:06AM 13.5030 117.4943 209° Southwest  Level Estimated
09:07AM 13.3982 117.4336 209° Southwest  Level Estimated
09:08AM 13.2934 117.3729 209° Southwest  Level Estimated
09:09AM 13.1886 117.3123 209° Southwest  Level Estimated
09:10AM 13.0837 117.2518 209° Southwest  Level Estimated
09:11AM 12.9789 117.1913 209° Southwest  Level Estimated
09:12AM 12.8740 117.1309 209° Southwest  Level Estimated
09:13AM 12.7692 117.0705 209° Southwest  Level Estimated
09:14AM 12.6643 117.0101 209° Southwest  Level Estimated
09:15AM 12.5594 116.9498 209° Southwest  Level Estimated
09:16AM 12.4544 116.8896 209° Southwest  Level Estimated
09:17AM 12.3495 116.8294 209° Southwest  Level Estimated
09:18AM 12.2446 116.7693 209° Southwest  Level Estimated
09:19AM 12.1396 116.7092 209° Southwest  Level Estimated
09:20AM 12.0346 116.6491 209° Southwest  Level Estimated
09:21AM 11.9297 116.5891 209° Southwest  Level Estimated
09:22AM 11.8247 116.5292 209° Southwest  Level Estimated
09:23AM 11.7197 116.4693 209° Southwest  Level Estimated
09:24AM 11.6146 116.4094 209° Southwest  Level Estimated
09:25AM 11.5096 116.3496 209° Southwest  Level Estimated
09:26AM 11.4046 116.2898 209° Southwest  Level Estimated
09:27AM 11.2995 116.2301 209° Southwest  Level Estimated
09:28AM 11.1944 116.1704 209° Southwest  Level Estimated
09:29AM 11.0893 116.1107 209° Southwest  Level Estimated
09:30AM 10.9843 116.0511 209° Southwest  Level Estimated
09:31AM 10.8792 115.9916 209° Southwest  Level Estimated
09:32AM 10.7740 115.9321 209° Southwest  Level Estimated
09:33AM 10.6689 115.8726 209° Southwest  Level Estimated
09:34AM 10.5638 115.8131 209° Southwest  Level Estimated
09:35AM 10.4586 115.7538 209° Southwest  Level Estimated
09:36AM 10.3534 115.6944 209° Southwest  Level Estimated
09:37AM 10.2483 115.6351 209° Southwest  Level Estimated
09:38AM 10.1431 115.5758 209° Southwest  Level Estimated
09:39AM 10.0379 115.5166 209° Southwest  Level Estimated
09:40AM 9.9327 115.4574 209° Southwest  Level Estimated
09:41AM 9.8275 115.3982 209° Southwest  Level Estimated
09:42AM 9.7223 115.3391 209° Southwest  Level Estimated
09:43AM 9.6171 115.2800 209° Southwest  Level Estimated
09:44AM 9.5118 115.2210 209° Southwest  Level Estimated
09:45AM 9.4066 115.1620 209° Southwest  Level Estimated
09:46AM 9.3013 115.1030 209° Southwest  Level Estimated
09:46AM 7.5890 117.2220 209° Southwest 489 563 36,000  Level FlightAware
09:47AM 9.1960 115.0441 209° Southwest  Level Estimated
09:47AM 7.5150 117.1700 215° Southwest 489 563 36,000  Level FlightAware
09:47AM 7.4180 117.1010 215° Southwest 489 563 36,000  Level FlightAware
09:48AM 7.3460 117.0500 215° Southwest 488 562 36,000  Level FlightAware
09:49AM 7.2630 116.9920 215° Southwest 489 563 36,000  Level FlightAware
09:49AM 7.1880 116.9390 215° Southwest 489 563 36,000  Level FlightAware
09:50AM 7.1030 116.8790 215° Southwest 488 562 36,000  Level FlightAware
09:51AM 7.0290 116.8270 215° Southwest 488 562 36,000  Level FlightAware
09:52AM 6.9450 116.7680 215° Southwest 488 562 36,000  Level FlightAware
09:52AM 6.8710 116.7160 215° Southwest 488 562 36,000  Level FlightAware
09:53AM 6.7870 116.6570 215° Southwest 488 562 36,000  Level FlightAware
09:54AM 6.7120 116.6040 215° Southwest 488 562 36,000  Level FlightAware
09:54AM 6.6390 116.5520 215° Southwest 487 560 36,000  Level FlightAware
09:55AM 6.5570 116.4950 215° Southwest 486 559 36,000  Level FlightAware
09:56AM 6.4830 116.4430 215° Southwest 487 560 36,000  Level FlightAware
09:57AM 6.3980 116.3830 215° Southwest 486 559 36,000  Level FlightAware
09:57AM 6.3240 116.3310 215° Southwest 487 560 36,000  Level FlightAware
09:58AM 6.2510 116.2800 215° Southwest 488 562 36,000  Level FlightAware
09:59AM 6.1680 116.2220 215° Southwest 488 562 36,000  Level FlightAware
09:59AM 6.0940 116.1710 214° Southwest 486 559 36,000  Level FlightAware
10:00AM 6.0210 116.1190 215° Southwest 487 560 36,000  Level FlightAware
10:01AM 5.9350 116.0590 215° Southwest 488 562 36,000  Level FlightAware
10:01AM 5.8620 116.0050 216° Southwest 489 563 36,000  Level FlightAware
10:02AM 5.7840 115.9440 218° Southwest 489 563 36,000  Level FlightAware
10:03AM 5.7120 115.8860 219° Southwest 491 565 36,000  Level FlightAware
10:04AM 5.6300 115.8210 218° Southwest 492 566 36,000  Level FlightAware
10:04AM 5.5580 115.7650 218° Southwest 491 565 36,000  Level FlightAware
10:05AM 5.4850 115.7080 218° Southwest 490 564 36,000  Level FlightAware
10:06AM 5.4070 115.6470 218° Southwest 490 564 36,000  Level FlightAware
10:06AM 5.3350 115.5910 218° Southwest 492 566 36,000  Level FlightAware
10:07AM 5.2520 115.5250 218° Southwest 492 566 36,000  Level FlightAware
10:08AM 5.1810 115.4690 218° Southwest 491 565 36,000  Level FlightAware
10:08AM 5.1090 115.4130 218° Southwest 490 564 36,000  Level FlightAware
10:09AM 5.0300 115.3510 218° Southwest 490 564 36,000  Level FlightAware
10:10AM 4.9580 115.2950 218° Southwest 490 564 36,000  Level FlightAware
10:11AM 4.8760 115.2300 218° Southwest 491 565 36,000  Level FlightAware
10:11AM 4.8060 115.1750 218° Southwest 491 565 36,000  Level FlightAware
10:12AM 4.7430 115.1230 219° Southwest 491 565 36,000  Level FlightAware
10:13AM 4.6590 115.0550 219° Southwest 493 567 36,000  Level FlightAware
10:13AM 4.5880 114.9970 219° Southwest 494 568 36,000  Level FlightAware
10:14AM 4.5070 114.9320 219° Southwest 495 570 36,000  Level FlightAware
10:15AM 4.4360 114.8750 219° Southwest 497 572 36,000  Level FlightAware
10:15AM 4.3640 114.8190 218° Southwest 498 573 36,000  Level FlightAware
10:16AM 4.2810 114.7540 218° Southwest 499 574 36,000  Level FlightAware
10:17AM 4.2070 114.6960 218° Southwest 501 577 36,000  Level FlightAware
10:18AM 4.1260 114.6330 218° Southwest 502 578 36,000  Level FlightAware
10:18AM 4.0520 114.5750 218° Southwest 502 578 36,000  Level FlightAware
10:19AM 3.9790 114.5170 218° Southwest 500 575 36,000  Level FlightAware
10:20AM 3.8970 114.4540 217° Southwest 499 574 36,000  Level FlightAware
10:20AM 3.8230 114.3960 218° Southwest 499 574 36,000  Level FlightAware
10:21AM 3.7420 114.3320 218° Southwest 497 572 36,000  Level FlightAware
10:22AM 3.6720 114.2770 218° Southwest 497 572 36,000  Level FlightAware
10:22AM 3.6060 114.2250 218° Southwest 496 571 36,000  Level FlightAware
10:23AM 3.5320 114.1680 218° Southwest 496 571 36,000  Level FlightAware
10:24AM 3.4710 114.1200 218° Southwest 496 571 36,000  Level FlightAware
10:24AM 3.4090 114.0710 218° Southwest 496 571 36,000  Level FlightAware
10:25AM 3.3320 114.0110 218° Southwest 496 571 36,000  Level FlightAware
10:26AM 3.2710 113.9630 218° Southwest 496 571 36,000  Level FlightAware
10:27AM 3.2090 113.9150 218° Southwest 496 571 36,000  Level FlightAware
10:27AM 3.1480 113.8670 218° Southwest 496 571 36,000  Level FlightAware
10:28AM 3.0860 113.8190 218° Southwest 496 571 36,000  Level FlightAware
10:29AM 3.0090 113.7590 218° Southwest 496 571 36,000  Level FlightAware
10:29AM 2.9480 113.7110 218° Southwest 496 571 36,000  Level FlightAware
10:30AM 2.8860 113.6630 218° Southwest 496 571 36,000  Level FlightAware
10:31AM 2.8250 113.6140 219° Southwest 496 571 36,000  Level FlightAware
10:31AM 2.7630 113.5660 218° Southwest 496 571 36,000  Level FlightAware
10:32AM 2.7020 113.5180 218° Southwest 496 571 36,000  Level FlightAware
10:34AM 2.3650 113.2560 218° Southwest 496 571 36,000  Level FlightAware
10:34AM 2.3100 113.2130 218° Southwest 496 571 36,000  Level FlightAware
10:35AM 2.2480 113.1650 218° Southwest 496 571 36,000  Level FlightAware
10:36AM 2.1870 113.1170 218° Southwest 496 571 36,000  Level FlightAware
10:36AM 2.1100 113.0570 218° Southwest 496 571 36,000  Level FlightAware
10:37AM 2.0490 113.0090 218° Southwest 496 571 36,000  Level FlightAware
10:38AM 1.9870 112.9600 218° Southwest 496 571 36,000  Level FlightAware
10:39AM 1.9100 112.9000 218° Southwest 496 571 36,000  Level FlightAware
10:39AM 1.8490 112.8520 218° Southwest 496 571 36,000  Level FlightAware
10:40AM 1.7870 112.8040 218° Southwest 496 571 36,000  Level FlightAware
10:41AM 1.5960 112.6560 218° Southwest 504 580 36,000  Level FlightAware
10:41AM 1.5340 112.6080 218° Southwest 504 580 36,000  Level FlightAware
10:42AM 1.4380 112.5330 218° Southwest 505 581 36,000  Level FlightAware
10:43AM 1.3770 112.4860 218° Southwest 505 581 36,000  Level FlightAware
10:43AM 1.2980 112.4240 218° Southwest 505 581 36,000  Level FlightAware
10:44AM 1.2360 112.3750 218° Southwest 505 581 36,000  Level FlightAware
10:45AM 1.1320 112.2960 217° Southwest 502 578 36,000  Level FlightAware
10:46AM 1.0520 112.2330 218° Southwest 497 572 36,000  Level FlightAware
10:46AM 0.9750 112.1740 217° Southwest 498 573 36,000  Level FlightAware
10:47AM 0.9030 112.1180 218° Southwest 500 575 36,000  Level FlightAware
10:48AM 0.8320 112.0630 218° Southwest 498 573 36,000  Level FlightAware
10:48AM 0.7350 111.9870 218° Southwest 497 572 36,000  Level FlightAware
10:49AM 0.6730 111.9390 218° Southwest 497 572 36,000  Level FlightAware
10:50AM 0.5960 111.8790 218° Southwest 497 572 36,000  Level FlightAware
10:51AM 0.5340 111.8310 218° Southwest 497 572 36,000  Level FlightAware
10:51AM 0.4730 111.7830 218° Southwest 497 572 36,000  Level FlightAware
10:52AM 0.4110 111.7350 218° Southwest 497 572 36,000  Level FlightAware
10:53AM 0.3500 111.6860 219° Southwest 497 572 36,000  Level FlightAware
10:53AM 0.2730 111.6260 218° Southwest 497 572 36,000  Level FlightAware
10:54AM 0.2110 111.5780 218° Southwest 497 572 36,000  Level FlightAware
10:55AM 0.1490 111.5300 218° Southwest 497 572 36,000  Level FlightAware
10:55AM 0.0880 111.4820 218° Southwest 497 572 36,000  Level FlightAware
10:56AM 0.0260 111.4340 218° Southwest 497 572 36,000  Level FlightAware
10:57AM -0.0350 111.3860 218° Southwest 497 572 36,000  Level FlightAware
10:58AM -0.1120 111.3250 218° Southwest 497 572 36,000 -540 Level FlightAware
11:00AM -0.2913 111.1865 218° Southwest  Level Estimated
11:01AM -0.3864 111.1130 218° Southwest  Level Estimated
11:02AM -0.4816 111.0395 218° Southwest  Level Estimated
11:03AM -0.5768 110.9659 218° Southwest  Level Estimated
11:04AM -0.6720 110.8924 218° Southwest  Level Estimated
11:05AM -0.7672 110.8188 218° Southwest  Level Estimated
11:06AM -0.8623 110.7453 218° Southwest  Level Estimated
11:07AM -0.9575 110.6717 218° Southwest  Level Estimated
11:08AM -1.0527 110.5982 218° Southwest  Level Estimated
11:09AM -1.1479 110.5246 218° Southwest  Level Estimated
11:10AM -1.2430 110.4511 218° Southwest  Level Estimated
11:11AM -1.3382 110.3775 218° Southwest  Level Estimated
11:12AM -1.4334 110.3039 218° Southwest  Level Estimated
11:13AM -1.5285 110.2303 218° Southwest  Level Estimated
11:14AM -1.6237 110.1568 218° Southwest  Level Estimated
11:15AM -1.7189 110.0832 218° Southwest  Level Estimated
11:16AM -1.8140 110.0096 218° Southwest  Level Estimated
11:17AM -1.9092 109.9360 218° Southwest  Level Estimated
11:18AM -2.0043 109.8623 218° Southwest  Level Estimated
11:19AM -2.0995 109.7887 218° Southwest  Level Estimated
11:20AM -2.1946 109.7151 218° Southwest  Level Estimated
11:21AM -2.2898 109.6414 218° Southwest  Level Estimated
11:22AM -2.3849 109.5678 218° Southwest  Level Estimated
11:23AM -2.4800 109.4941 218° Southwest  Level Estimated
11:24AM -2.5752 109.4205 218° Southwest  Level Estimated
11:25AM -2.6703 109.3468 218° Southwest  Level Estimated
11:26AM -2.7654 109.2731 218° Southwest  Level Estimated
11:27AM -2.8605 109.1994 218° Southwest  Level Estimated
11:28AM -2.9556 109.1256 218° Southwest  Level Estimated
11:29AM -3.0507 109.0519 218° Southwest  Level Estimated
11:30AM -3.1458 108.9782 218° Southwest  Level Estimated
11:31AM -3.2409 108.9044 218° Southwest  Level Estimated
11:32AM -3.3360 108.8306 218° Southwest  Level Estimated
11:33AM -3.4311 108.7569 218° Southwest  Level Estimated
11:34AM -3.5262 108.6831 218° Southwest  Level Estimated
11:35AM -3.6212 108.6092 218° Southwest  Level Estimated
11:36AM -3.7163 108.5354 218° Southwest  Level Estimated
11:37AM -3.8114 108.4615 218° Southwest  Level Estimated
11:38AM -3.9064 108.3877 218° Southwest  Level Estimated
11:39AM -4.0015 108.3138 218° Southwest  Level Estimated
11:40AM -4.0965 108.2399 218° Southwest  Level Estimated
11:41AM -4.1915 108.1660 218° Southwest  Level Estimated
11:42AM -4.2866 108.0920 218° Southwest  Level Estimated
11:43AM -4.3816 108.0181 218° Southwest  Level Estimated
11:44AM -4.4766 107.9441 218° Southwest  Level Estimated
11:45AM -4.5716 107.8701 218° Southwest  Level Estimated
11:46AM -4.6666 107.7961 218° Southwest  Level Estimated
11:47AM -4.7616 107.7221 218° Southwest  Level Estimated
11:48AM -4.8566 107.6480 218° Southwest  Level Estimated
11:48AM -5.7760 107.3270 218° Southwest 353 406 11,400  Level FlightAware
11:48AM -5.8190 107.2750 230° Southwest 321 369 10,300 -1,440 Descending FlightAware
11:49AM -5.8570 107.2280 231° Southwest 295 339 9,400 -1,320 Descending FlightAware
11:49AM -5.8810 107.1990 230° Southwest 292 336 8,800 -1,200 Descending FlightAware
11:50AM -5.9080 107.1660 231° Southwest 287 330 8,200 -1,320 Descending FlightAware
11:50AM -5.9290 107.1410 230° Southwest 284 327 7,600 -1,200 Descending FlightAware
11:51AM -5.9540 107.1100 231° Southwest 284 327 7,100 -780 Descending FlightAware
11:51AM -5.9680 107.0810 244° Southwest 278 320 6,900 -660 Descending FlightAware
11:52AM -5.9820 107.0460 248° West 264 304 6,500 -1,020 Descending FlightAware
11:52AM -5.9960 107.0120 248° West 255 293 5,900 -1,200 Descending FlightAware
11:53AM -6.0050 106.9870 250° West 245 282 5,400 -1,140 Descending FlightAware
11:53AM -6.0180 106.9560 247° West 231 266 4,900 -900 Descending FlightAware
11:54AM -6.0280 106.9310 248° West 232 267 4,600 -780 Descending FlightAware
11:54AM -6.0340 106.9150 249° West 230 265 4,400 -420 Descending FlightAware
11:54AM -6.0460 106.8860 247° West 220 253 4,300 -480 Descending FlightAware
11:55AM -6.0550 106.8630 249° West 213 245 4,000 -1,020 Descending FlightAware
11:55AM -6.0660 106.8360 248° West 210 242 3,400 -1,140 Descending FlightAware
11:56AM -6.0750 106.8130 249° West 207 238 3,000 -1,020 Descending FlightAware
11:56AM -6.0840 106.7900 249° West 194 223 2,500 -1,020 Descending FlightAware
11:57AM -6.0950 106.7640 247° West 187 215 2,000 -1,020 Descending FlightAware
11:59AM -6.1256 106.6559 254° West  Level Estimated
12:00PM -6.1256 106.6559 315° West  Level Estimated
12:01PM -6.1256 106.6559 315° West  Level Estimated
12:02PM -6.1256 106.6559 315° West  Level Estimated
12:03PM -6.1256 106.6559 315° West  Level Estimated
12:04PM -6.1256 106.6559 315° West  Level Estimated
12:05PM -6.1256 106.6559 315° West  Level Estimated
12:06PM -6.1256 106.6559 315° West  Level Estimated
12:07PM -6.1256 106.6559 315° West  Level Estimated
12:08PM -6.1256 106.6559 315° West  Level Estimated
12:09PM -6.1256 106.6559 315° West  Level Estimated
12:10PM -6.1256 106.6559 315° West  Level Estimated
12:11PM -6.1256 106.6559 315° West  Level Estimated
12:12PM -6.1256 106.6559 315° West  Level Estimated
12:13PM -6.1256 106.6559 315° West  Level Estimated
12:14PM -6.1256 106.6559 315° West  Level Estimated
12:15PM -6.1256 106.6559 315° West  Level Estimated
12:16PM -6.1256 106.6559 315° West  Level Estimated